Meath Environmental Platform

Observations for Trim Patrick St

Time AQI Temp °C Hum % Pres Pa CO μg/m³ H₂S μg/m³ NO μg/m³ NO₂ μg/m³ O₃ μg/m³ SO₂ μg/m³ PM1 μg/m³ PM2.5 μg/m³ PM10 μg/m³
Tuesday 4 August 2026
12:19 1 31.3 47 69,414 0 0 0.74 6.94 69.3 20.35 2 6.59 7.25
12:18 1 31.4 45 69,402 0 0 0.7 9.29 60.63 18.4 2 6.7 7.37
12:17 1 31.5 47 69,365 0 0 0.73 7.59 53.71 18.91 2 6.61 7.27
12:16 1 31.5 46 69,375 0 0 0.7 6.92 66.33 19.64 2 6.68 7.35
12:15 1 31.6 46 69,385 0 0 0.68 3.67 58.16 20.45 2 6.69 7.36
12:14 1 31.6 46 69,377 0 0 0.69 5.91 58.7 19.54 2 7.46 8.2
12:13 1 31.7 46 69,387 0 0 0.68 7.1 65.46 20.04 2 6.67 7.34
12:12 1 31.8 46 69,373 0 0 0.68 5.2 65.89 20.11 2 6.7 7.37
12:11 1 31.8 45 69,385 0 0 0.69 6.76 66.57 19.8 2 6.72 7.39
12:10 1 31.9 45 69,401 0 0 0.7 0.66 35.13 20.71 2 6.71 7.38
12:09 1 31.9 44 69,395 0 0 0.68 1.67 39.44 19.71 2 6.77 7.44
12:08 1 32 45 69,387 0 0 0.68 5.41 58.26 19.92 2 7.5 8.25
12:07 1 32 44 69,377 0 0 0.67 0.5 57.57 20.73 2 6.76 7.44
12:06 1 32.1 44 69,381 0 0 0.66 3.64 49.29 19.81 2 6.77 7.45
12:05 1 32.2 45 69,365 0 0 0.68 2.81 29.95 19.82 2 6.71 7.38
12:04 1 32.3 45 69,375 0 0 0.66 3 48.74 20.13 2 6.74 7.41
12:03 1 32.3 44 69,389 0 0 0.66 1.82 45.34 20.62 2 6.76 7.44
12:02 1 32.4 45 69,402 0 0 0.65 1.08 45.86 20.31 2 6.72 7.39
12:00 1 32.5 44 69,450 0 0 0.62 2.06 21.02 20.17 2 6.78 7.46
11:57 1 32.5 45 69,481 0 0 0.68 5.29 42.3 19.83 2 6.72 7.39